地図

経路データ

SID SEASON NUMBER BASIN SUBBASIN NAME ISO_TIME NATURE LAT LON WMO_WIND WMO_PRES WMO_AGENCY TRACK_TYPE DIST2LAND LANDFALL IFLAG USA_AGENCY USA_ATCF_ID USA_LAT USA_LON USA_RECORD USA_STATUS USA_WIND USA_PRES USA_SSHS USA_R34_NE USA_R34_SE USA_R34_SW USA_R34_NW USA_R50_NE USA_R50_SE USA_R50_SW USA_R50_NW USA_R64_NE USA_R64_SE USA_R64_SW USA_R64_NW USA_POCI USA_ROCI USA_RMW USA_EYE TOKYO_LAT TOKYO_LON TOKYO_GRADE TOKYO_WIND TOKYO_PRES TOKYO_R50_DIR TOKYO_R50_LONG TOKYO_R50_SHORT TOKYO_R30_DIR TOKYO_R30_LONG TOKYO_R30_SHORT TOKYO_LAND CMA_LAT CMA_LON CMA_CAT CMA_WIND CMA_PRES HKO_LAT HKO_LON HKO_CAT HKO_WIND HKO_PRES NEWDELHI_LAT NEWDELHI_LON NEWDELHI_GRADE NEWDELHI_WIND NEWDELHI_PRES NEWDELHI_CI NEWDELHI_DP NEWDELHI_POCI REUNION_LAT REUNION_LON REUNION_TYPE REUNION_WIND REUNION_PRES REUNION_TNUM REUNION_CI REUNION_RMW REUNION_R34_NE REUNION_R34_SE REUNION_R34_SW REUNION_R34_NW REUNION_R50_NE REUNION_R50_SE REUNION_R50_SW REUNION_R50_NW REUNION_R64_NE REUNION_R64_SE REUNION_R64_SW REUNION_R64_NW BOM_LAT BOM_LON BOM_TYPE BOM_WIND BOM_PRES BOM_TNUM BOM_CI BOM_RMW BOM_R34_NE BOM_R34_SE BOM_R34_SW BOM_R34_NW BOM_R50_NE BOM_R50_SE BOM_R50_SW BOM_R50_NW BOM_R64_NE BOM_R64_SE BOM_R64_SW BOM_R64_NW BOM_ROCI BOM_POCI BOM_EYE BOM_POS_METHOD BOM_PRES_METHOD NADI_LAT NADI_LON NADI_CAT NADI_WIND NADI_PRES WELLINGTON_LAT WELLINGTON_LON WELLINGTON_WIND WELLINGTON_PRES DS824_LAT DS824_LON DS824_STAGE DS824_WIND DS824_PRES TD9636_LAT TD9636_LON TD9636_STAGE TD9636_WIND TD9636_PRES TD9635_LAT TD9635_LON TD9635_WIND TD9635_PRES TD9635_ROCI NEUMANN_LAT NEUMANN_LON NEUMANN_CLASS NEUMANN_WIND NEUMANN_PRES MLC_LAT MLC_LON MLC_CLASS MLC_WIND MLC_PRES USA_GUST BOM_GUST BOM_GUST_PER REUNION_GUST REUNION_GUST_PER USA_SEAHGT USA_SEARAD_NE USA_SEARAD_SE USA_SEARAD_SW USA_SEARAD_NW STORM_SPEED STORM_DIR
1915308N13087 1915 48 NI BB NOT_NAMED 1915-11-04 00:00:00 TS 13.4000 86.9000 main 610 577 _________O____ -1 13.4000 86.9000 TC 34 6 283
1915308N13087 1915 48 NI BB NOT_NAMED 1915-11-04 03:00:00 TS 13.4668 86.6000 main 577 536 _________PO___ -1 13.5002 86.4501 TC 36 13.4000 86.9000 2 7 283
1915308N13087 1915 48 NI BB NOT_NAMED 1915-11-04 06:00:00 TS 13.5615 86.1802 main 536 496 _________OP___ -1 13.6000 86.0000 TC 39 13.5038 86.4504 2 9 283
1915308N13087 1915 48 NI BB NOT_NAMED 1915-11-04 09:00:00 TS 13.6596 85.7430 main 488 457 _________PP___ -1 13.6999 85.5500 TC 42 13.6058 86.0005 2 9 283
1915308N13087 1915 48 NI BB NOT_NAMED 1915-11-04 12:00:00 TS 13.7524 85.3251 main 449 419 _________OP___ -1 13.8000 85.1000 TC 45 13.7048 85.5503 2 9 283
1915308N13087 1915 48 NI BB NOT_NAMED 1915-11-04 15:00:00 TS 13.8499 84.8787 main 419 377 _________PO___ -1 13.8999 84.6574 TC 45 13.8000 85.1000 3 9 282
1915308N13087 1915 48 NI BB NOT_NAMED 1915-11-04 18:00:00 TS 13.9457 84.4241 main 377 343 _________OP___ -1 14.0000 84.2000 TC 45 13.8914 84.6481 3 9 282
1915308N13087 1915 48 NI BB NOT_NAMED 1915-11-04 21:00:00 TS 14.0383 83.9547 main 343 307 _________PP___ -1 14.0923 83.7224 TC 45 13.9843 84.1870 3 10 282
1915308N13087 1915 48 NI BB NOT_NAMED 1915-11-05 00:00:00 TS 14.1425 83.4537 main 307 258 _________OP___ -1 14.2000 83.2000 TC 45 14.0851 83.7074 3 10 283
1915308N13087 1915 48 NI BB NOT_NAMED 1915-11-05 03:00:00 TS 14.2713 82.9038 main 258 217 _________PO___ -1 14.3425 82.6075 TC 45 14.2000 83.2000 3 11 285
1915308N13087 1915 48 NI BB NOT_NAMED 1915-11-05 06:00:00 TS 14.4237 82.3351 main 209 156 _________OP___ -1 14.5000 82.0000 TC 45 14.3474 82.6701 3 11 286
1915308N13087 1915 48 NI BB NOT_NAMED 1915-11-05 09:00:00 TS 14.5820 81.7838 main 156 108 _________PP___ -1 14.6572 81.4574 TC 45 14.5069 82.1102 3 11 286
1915308N13087 1915 48 NI BB NOT_NAMED 1915-11-05 12:00:00 TS 14.7315 81.2101 main 108 54 _________OP___ -1 14.8000 80.9000 TC 45 14.6629 81.5201 3 12 283
1915308N13087 1915 48 NI BB NOT_NAMED 1915-11-05 15:00:00 TS 14.8574 80.5862 main 54 0 _________PO___ -1 14.9149 80.2725 TC 41 14.8000 80.9000 3 13 280
1915308N13087 1915 48 NI BB NOT_NAMED 1915-11-05 18:00:00 TS 14.9586 79.9147 main 0 0 _________OP___ -1 15.0000 79.6000 TC 37 14.9171 80.2295 3 13 278
1915308N13087 1915 48 NI BB NOT_NAMED 1915-11-05 21:00:00 TS 15.0415 79.2064 main 0 0 _________PP___ -1 15.0726 78.8775 TC 33 15.0104 79.5352 3 14 275
1915308N13087 1915 48 NI BB NOT_NAMED 1915-11-06 00:00:00 TS 15.0867 78.5242 main 0 0 _________OP___ -1 15.1000 78.2000 TC 30 15.0734 78.8483 3 12 272
1915308N13087 1915 48 NI AS NOT_NAMED 1915-11-06 03:00:00 TS 15.0823 77.9387 main 0 0 _________PO___ -1 15.0646 77.6774 TC 30 15.1000 78.2000 1 11 267
1915308N13087 1915 48 NI AS NOT_NAMED 1915-11-06 06:00:00 TS 15.0323 77.4217 main 0 0 _________OP___ -1 15.0000 77.2000 TC 30 15.0645 77.6433 1 10 263
1915308N13087 1915 48 NI AS NOT_NAMED 1915-11-06 09:00:00 TS 14.9667 76.8957 main 0 0 _________PP___ -1 14.9349 76.6649 TC 30 14.9985 77.1265 1 10 264
1915308N13087 1915 48 NI AS NOT_NAMED 1915-11-06 12:00:00 TS 14.9167 76.3607 main 0 0 _________OP___ -1 14.9000 76.1000 TC 30 14.9333 76.6215 1 11 267
1915308N13087 1915 48 NI AS NOT_NAMED 1915-11-06 15:00:00 TS 14.9137 75.8038 main 0 0 _________PO___ -1 14.9274 75.5075 TC 30 14.9000 76.1000 1 11 272
1915308N13087 1915 48 NI AS NOT_NAMED 1915-11-06 18:00:00 TS 14.9551 75.2658 main 0 0 _________OP___ -1 15.0000 74.9000 TC 30 14.9215 75.5402 1 11 276
1915308N13087 1915 48 NI AS NOT_NAMED 1915-11-06 21:00:00 TS 15.0318 74.6868 main 0 0 _________PP___ -1 15.0953 74.2976 TC 30 14.9894 74.9462 1 11 279
1915308N13087 1915 48 NI AS NOT_NAMED 1915-11-07 00:00:00 TS 15.1251 74.1194 main 0 0 _________OP___ -1 15.2000 73.7000 TC 30 15.0876 74.3291 1 10 280
1915308N13087 1915 48 NI AS NOT_NAMED 1915-11-07 03:00:00 NR 15.2000 73.7000 main 24 __________O___ -1 TC 15.2000 73.7000 1 8 280

IBTrACS Databaseについて

本データベースは、米国NOAAが公開する1842年以降の世界の熱帯低気圧のベストトラックデータアーカイブInternational Best Track Archive for Climate Stewardship (IBTrACS)を、ウェブで閲覧しやすい形式に変換したものです。

最終更新日:2021-10-27